createdAt,value
2019-03-06T00:01:56.359Z,63.80
2019-03-06T00:04:01.220Z,63.70
2019-03-06T00:06:16.251Z,63.80
2019-03-06T00:08:14.313Z,64.70
2019-03-06T00:10:29.449Z,63.90
2019-03-06T00:12:34.433Z,64.00
2019-03-06T00:14:39.495Z,64.20
2019-03-06T00:16:44.704Z,64.30
2019-03-06T00:18:50.077Z,64.40
2019-03-06T00:20:55.758Z,64.40
2019-03-06T00:23:05.025Z,64.50
2019-03-06T00:25:10.473Z,65.10
2019-03-06T00:27:15.452Z,64.50
2019-03-06T00:29:20.377Z,64.60
2019-03-06T00:31:25.480Z,64.80
2019-03-06T00:33:30.663Z,65.00
2019-03-06T00:35:39.757Z,65.00
2019-03-06T00:37:45.002Z,65.10
2019-03-06T00:40:00.544Z,65.10
2019-03-06T00:42:06.012Z,65.20
2019-03-06T00:44:11.010Z,65.20
2019-03-06T00:46:16.618Z,65.40
2019-03-06T00:48:21.683Z,65.50
2019-03-06T00:50:27.031Z,65.50
2019-03-06T00:52:31.904Z,65.70
2019-03-06T00:54:37.133Z,65.70
2019-03-06T00:56:42.472Z,65.90
2019-03-06T00:58:47.733Z,66.70
2019-03-06T01:00:53.086Z,66.10
2019-03-06T01:02:58.078Z,66.10
2019-03-06T01:05:03.439Z,66.10
2019-03-06T01:07:09.265Z,66.10
2019-03-06T01:09:15.037Z,66.20
2019-03-06T01:11:20.599Z,66.10
2019-03-06T01:13:25.780Z,66.10
2019-03-06T01:15:30.638Z,66.20
2019-03-06T01:17:36.181Z,66.40
2019-03-06T01:19:41.875Z,66.40
2019-03-06T01:21:46.989Z,66.40
2019-03-06T01:23:51.877Z,66.40
2019-03-06T01:25:57.104Z,66.40
2019-03-06T01:28:03.219Z,66.70
2019-03-06T01:30:10.871Z,66.80
2019-03-06T01:32:16.442Z,66.80
2019-03-06T01:34:39.564Z,66.90
2019-03-06T01:36:52.434Z,67.00
2019-03-06T01:39:19.685Z,67.20
2019-03-06T01:41:42.117Z,67.40
2019-03-06T01:43:55.655Z,67.40
2019-03-06T01:46:01.434Z,67.50
2019-03-06T01:48:06.647Z,67.70
2019-03-06T01:50:14.635Z,67.70
2019-03-06T01:52:20.131Z,67.70
2019-03-06T01:54:25.753Z,67.80
2019-03-06T01:56:30.667Z,67.80
2019-03-06T01:58:36.341Z,68.00
2019-03-06T02:00:45.180Z,68.20
2019-03-06T02:02:55.286Z,68.30
2019-03-06T02:05:02.550Z,68.40
2019-03-06T02:07:12.807Z,68.60
2019-03-06T02:09:22.258Z,68.80
2019-03-06T02:11:27.842Z,68.70
2019-03-06T02:13:33.498Z,68.70
2019-03-06T02:15:38.513Z,68.60
2019-03-06T02:17:44.009Z,68.70
2019-03-06T02:19:48.930Z,68.70
2019-03-06T02:21:54.214Z,68.70
2019-03-06T02:23:59.461Z,68.70
2019-03-06T02:26:05.243Z,68.70
2019-03-06T02:28:10.316Z,68.80
2019-03-06T02:30:19.475Z,68.70
2019-03-06T02:32:24.857Z,68.90
2019-03-06T02:34:29.744Z,68.80
2019-03-06T02:36:34.997Z,68.70
2019-03-06T02:38:40.565Z,69.00
2019-03-06T02:40:45.506Z,68.60
2019-03-06T02:42:50.691Z,68.80
2019-03-06T02:44:55.930Z,68.70
2019-03-06T02:47:00.825Z,68.70
2019-03-06T02:49:05.974Z,68.50
2019-03-06T02:51:11.117Z,68.70
2019-03-06T02:53:16.903Z,68.80
2019-03-06T02:55:23.441Z,68.80
2019-03-06T02:57:28.893Z,68.80
2019-03-06T03:00:03.320Z,68.90
2019-03-06T03:02:29.607Z,68.80
2019-03-06T03:04:46.361Z,69.50
2019-03-06T03:06:57.929Z,68.60
2019-03-06T03:09:03.530Z,68.70
2019-03-06T03:11:08.559Z,68.70
2019-03-06T03:13:14.032Z,68.70
2019-03-06T03:15:19.213Z,69.00
2019-03-06T03:17:24.536Z,69.00
2019-03-06T03:19:30.305Z,69.20
2019-03-06T03:21:35.456Z,69.20
2019-03-06T03:23:40.675Z,69.30
2019-03-06T03:25:46.142Z,69.30
2019-03-06T03:27:51.332Z,69.40
2019-03-06T03:29:56.199Z,69.40
2019-03-06T03:32:01.744Z,69.30
2019-03-06T03:34:07.134Z,69.30
2019-03-06T03:36:12.666Z,69.40
2019-03-06T03:38:17.916Z,69.40
2019-03-06T03:40:23.196Z,69.40
2019-03-06T03:42:28.516Z,69.40
2019-03-06T03:44:33.688Z,69.50
2019-03-06T03:46:39.461Z,69.50
2019-03-06T03:48:44.936Z,69.40
2019-03-06T03:50:50.399Z,69.30
2019-03-06T03:52:55.651Z,69.30
2019-03-06T03:55:01.341Z,69.40
2019-03-06T03:57:06.655Z,69.30
2019-03-06T03:59:11.902Z,69.10
2019-03-06T04:01:17.269Z,69.10
2019-03-06T04:03:22.266Z,69.10
2019-03-06T04:05:27.774Z,69.10
2019-03-06T04:07:32.956Z,69.10
2019-03-06T04:09:38.199Z,69.00
2019-03-06T04:11:43.318Z,69.20
2019-03-06T04:13:48.454Z,68.90
2019-03-06T04:15:54.168Z,68.90
2019-03-06T04:17:59.316Z,68.80
2019-03-06T04:20:05.493Z,68.80
2019-03-06T04:22:10.486Z,68.70
2019-03-06T04:24:15.589Z,68.70
2019-03-06T04:26:21.420Z,68.70
2019-03-06T04:28:28.077Z,68.60
2019-03-06T04:30:33.370Z,68.60
2019-03-06T04:32:38.242Z,68.70
2019-03-06T04:34:43.185Z,68.80
2019-03-06T04:36:48.381Z,68.80
2019-03-06T04:38:53.313Z,68.80
2019-03-06T04:40:58.762Z,69.10
2019-03-06T04:43:04.797Z,69.00
2019-03-06T04:45:10.529Z,69.10
2019-03-06T04:47:15.675Z,69.20
2019-03-06T04:49:20.843Z,69.40
2019-03-06T04:51:26.269Z,69.30
2019-03-06T04:53:31.534Z,69.30
2019-03-06T04:55:37.251Z,69.30
2019-03-06T04:57:42.663Z,69.50
2019-03-06T04:59:47.534Z,69.40
2019-03-06T05:01:52.447Z,69.10
2019-03-06T05:03:57.945Z,69.40
2019-03-06T05:06:03.275Z,69.40
2019-03-06T05:08:09.030Z,69.30
2019-03-06T05:10:14.548Z,69.40
2019-03-06T05:12:19.984Z,69.50
2019-03-06T05:14:25.408Z,69.40
2019-03-06T05:16:52.575Z,69.50
2019-03-06T05:19:01.342Z,69.40
2019-03-06T05:21:06.855Z,69.30
2019-03-06T05:23:12.008Z,69.10
2019-03-06T05:25:16.858Z,69.00
2019-03-06T05:27:22.740Z,68.90
2019-03-06T05:29:27.932Z,68.70
2019-03-06T05:31:33.753Z,69.20
2019-03-06T05:33:38.900Z,68.50
2019-03-06T05:37:02.010Z,68.20
2019-03-06T05:39:13.384Z,68.20
2019-03-06T05:41:22.526Z,68.10
2019-03-06T05:43:27.729Z,68.00
2019-03-06T05:45:34.506Z,67.80
2019-03-06T05:47:41.322Z,67.70
2019-03-06T05:49:48.000Z,67.70
2019-03-06T05:51:53.569Z,67.80
2019-03-06T05:53:58.475Z,67.70
2019-03-06T05:56:03.658Z,67.70
2019-03-06T05:58:08.913Z,67.80
2019-03-06T06:00:14.528Z,67.70
2019-03-06T06:02:19.735Z,67.80
2019-03-06T06:04:24.712Z,68.10
2019-03-06T06:06:29.636Z,67.90
2019-03-06T06:08:35.113Z,67.90
2019-03-06T06:10:40.025Z,67.90
2019-03-06T06:12:45.268Z,68.20
2019-03-06T06:14:50.122Z,68.00
2019-03-06T06:16:55.674Z,68.10
2019-03-06T06:19:01.749Z,68.00
2019-03-06T06:21:19.539Z,68.00
2019-03-06T06:23:49.635Z,67.90
2019-03-06T06:25:55.106Z,68.00
2019-03-06T06:28:00.526Z,68.00
2019-03-06T06:30:05.977Z,68.20
2019-03-06T06:32:11.236Z,68.30
2019-03-06T06:34:16.845Z,68.50
2019-03-06T06:36:22.011Z,68.70
2019-03-06T06:38:27.258Z,69.10
2019-03-06T06:40:32.263Z,69.30
2019-03-06T06:42:37.592Z,69.60
2019-03-06T06:44:43.256Z,70.20
2019-03-06T06:46:48.281Z,70.70
2019-03-06T06:48:54.160Z,71.10
2019-03-06T06:51:38.998Z,71.40
2019-03-06T06:54:03.343Z,71.60
2019-03-06T06:57:28.691Z,71.90
2019-03-06T07:00:02.895Z,72.10
2019-03-06T07:03:08.084Z,72.10
2019-03-06T07:05:45.203Z,72.10
2019-03-06T07:08:15.179Z,72.20
2019-03-06T07:10:38.402Z,72.20
2019-03-06T07:13:00.985Z,72.20
2019-03-06T07:15:26.072Z,72.50
2019-03-06T07:17:50.058Z,72.30
2019-03-06T07:20:31.717Z,72.50
2019-03-06T07:22:54.570Z,72.50
2019-03-06T07:25:24.685Z,72.20
2019-03-06T07:27:44.679Z,72.20
2019-03-06T07:30:06.317Z,72.00
2019-03-06T07:32:30.392Z,71.90
2019-03-06T07:34:53.673Z,71.90
2019-03-06T07:37:03.008Z,71.60
2019-03-06T07:39:37.227Z,71.50
2019-03-06T07:41:53.255Z,71.20
2019-03-06T07:44:29.598Z,71.10
2019-03-06T07:46:44.468Z,71.10
2019-03-06T07:49:07.300Z,70.90
2019-03-06T07:51:50.047Z,70.90
2019-03-06T07:54:03.877Z,70.90
2019-03-06T07:56:13.676Z,70.80
2019-03-06T07:58:53.648Z,70.60
2019-03-06T08:00:58.505Z,70.40
2019-03-06T08:03:14.148Z,69.10
2019-03-06T08:05:19.291Z,68.80
2019-03-06T08:07:24.755Z,68.70
2019-03-06T08:09:30.324Z,68.40
2019-03-06T08:12:00.561Z,68.40
2019-03-06T08:14:10.479Z,68.20
2019-03-06T08:16:30.304Z,68.40
2019-03-06T08:18:50.010Z,68.10
2019-03-06T08:21:06.178Z,67.80
2019-03-06T08:23:33.217Z,67.50
2019-03-06T08:25:55.391Z,67.50
2019-03-06T08:28:00.630Z,66.70
2019-03-06T08:30:08.731Z,66.40
2019-03-06T08:32:19.845Z,66.10
2019-03-06T08:34:25.106Z,66.40
2019-03-06T08:36:30.339Z,65.10
2019-03-06T08:38:35.649Z,65.00
2019-03-06T08:40:40.696Z,65.20
2019-03-06T08:42:45.700Z,65.10
2019-03-06T08:44:50.574Z,64.70
2019-03-06T08:47:13.626Z,64.50
2019-03-06T08:49:43.941Z,64.50
2019-03-06T08:52:14.056Z,64.00
2019-03-06T08:54:26.214Z,63.80
2019-03-06T08:56:42.029Z,63.30
2019-03-06T08:59:05.539Z,63.00
2019-03-06T09:02:00.054Z,62.20
2019-03-06T09:04:25.330Z,62.20
2019-03-06T09:06:36.370Z,62.00
2019-03-06T09:09:16.003Z,61.80
2019-03-06T09:11:32.079Z,61.50
2019-03-06T09:14:03.627Z,61.00
2019-03-06T09:16:30.617Z,60.50
2019-03-06T09:18:45.185Z,60.70
2019-03-06T09:21:27.483Z,60.20
2019-03-06T09:23:44.067Z,60.30
2019-03-06T09:25:56.902Z,60.40
2019-03-06T09:28:07.425Z,60.20
2019-03-06T09:30:26.739Z,59.40
2019-03-06T09:32:36.597Z,59.50
2019-03-06T09:34:53.502Z,59.30
2019-03-06T09:37:16.021Z,59.00
2019-03-06T09:39:31.853Z,59.10
2019-03-06T09:41:59.525Z,59.20
2019-03-06T09:44:16.008Z,58.90
2019-03-06T09:46:27.406Z,58.50
2019-03-06T09:48:41.274Z,58.50
2019-03-06T09:50:53.114Z,58.20
2019-03-06T09:53:16.017Z,58.20
2019-03-06T09:55:38.931Z,57.90
2019-03-06T09:58:06.621Z,57.70
2019-03-06T10:00:29.049Z,57.10
2019-03-06T10:02:52.159Z,57.10
2019-03-06T10:05:17.630Z,57.20
2019-03-06T10:07:32.976Z,56.90
2019-03-06T10:10:11.193Z,56.60
2019-03-06T10:12:33.860Z,56.50
2019-03-06T10:15:01.180Z,56.50
2019-03-06T10:17:17.586Z,56.20
2019-03-06T10:19:32.214Z,56.00
2019-03-06T10:21:37.306Z,55.70
2019-03-06T10:23:42.537Z,55.80
2019-03-06T10:25:48.360Z,55.40
2019-03-06T10:27:53.228Z,55.30
2019-03-06T10:29:58.572Z,55.20
2019-03-06T10:32:03.858Z,55.00
2019-03-06T10:34:12.185Z,54.50
2019-03-06T10:36:16.259Z,54.40
2019-03-06T10:38:21.936Z,54.30
2019-03-06T10:40:26.834Z,54.30
2019-03-06T10:42:32.649Z,54.20
2019-03-06T10:44:37.810Z,54.00
2019-03-06T10:46:42.990Z,53.70
2019-03-06T10:48:48.495Z,53.70
2019-03-06T10:50:53.825Z,53.50
2019-03-06T10:52:58.869Z,52.90
2019-03-06T10:55:05.783Z,52.90
2019-03-06T10:57:11.895Z,53.00
2019-03-06T10:59:17.476Z,52.80
2019-03-06T11:01:22.815Z,52.70
2019-03-06T11:03:39.339Z,52.50
2019-03-06T11:05:44.710Z,52.10
2019-03-06T11:07:50.229Z,52.10
2019-03-06T11:09:55.357Z,51.80
2019-03-06T11:12:00.427Z,51.20
2019-03-06T11:14:08.561Z,51.10
2019-03-06T11:16:17.902Z,51.50
2019-03-06T11:18:21.589Z,51.20
2019-03-06T11:20:29.839Z,51.00
2019-03-06T11:22:34.964Z,50.60
2019-03-06T11:24:40.180Z,50.70
2019-03-06T11:26:45.537Z,50.50
2019-03-06T11:28:50.754Z,49.90
2019-03-06T11:30:56.818Z,49.50
2019-03-06T11:33:02.228Z,49.30
2019-03-06T11:35:08.759Z,49.20
2019-03-06T11:37:13.887Z,48.90
2019-03-06T11:39:19.429Z,48.50
2019-03-06T11:41:24.496Z,48.40
2019-03-06T11:43:31.069Z,47.90
2019-03-06T11:45:37.558Z,47.90
2019-03-06T11:47:43.005Z,47.80
2019-03-06T11:49:48.672Z,47.80
2019-03-06T11:51:54.344Z,48.00
2019-03-06T11:53:59.390Z,47.90
2019-03-06T11:56:05.762Z,47.90
2019-03-06T11:58:14.222Z,47.50
2019-03-06T12:00:29.386Z,47.60
2019-03-06T12:02:34.738Z,47.50
2019-03-06T12:04:40.444Z,47.30
2019-03-06T12:06:45.762Z,46.90
2019-03-06T12:08:51.230Z,47.00
2019-03-06T12:10:57.103Z,46.80
2019-03-06T12:13:02.210Z,46.80
2019-03-06T12:15:08.501Z,46.30
2019-03-06T12:17:14.537Z,46.40
2019-03-06T12:19:19.861Z,46.10
2019-03-06T12:21:25.703Z,46.00
2019-03-06T12:23:31.190Z,45.80
2019-03-06T12:25:36.698Z,45.80
2019-03-06T12:27:42.376Z,45.40
2019-03-06T12:29:48.107Z,45.50
2019-03-06T12:31:53.041Z,45.50
2019-03-06T12:33:58.590Z,45.30
2019-03-06T12:36:05.619Z,45.10
2019-03-06T12:38:11.603Z,44.80
2019-03-06T12:40:16.974Z,45.00
2019-03-06T12:42:21.884Z,44.40
2019-03-06T12:44:26.784Z,44.60
2019-03-06T12:46:32.861Z,44.60
2019-03-06T12:48:37.986Z,44.90
2019-03-06T12:50:43.505Z,45.10
2019-03-06T12:52:49.489Z,45.10
2019-03-06T12:54:54.354Z,45.10
2019-03-06T12:56:59.325Z,45.50
2019-03-06T12:59:05.424Z,45.20
2019-03-06T13:01:11.112Z,45.20
2019-03-06T13:03:18.276Z,45.10
2019-03-06T13:05:24.673Z,45.10
2019-03-06T13:07:29.683Z,45.10
2019-03-06T13:09:37.541Z,45.10
2019-03-06T13:11:42.359Z,45.10
2019-03-06T13:13:47.507Z,44.60
2019-03-06T13:15:53.791Z,44.50
2019-03-06T13:17:59.833Z,44.80
2019-03-06T13:20:08.928Z,44.60
2019-03-06T13:22:14.345Z,44.50
2019-03-06T13:24:19.794Z,44.10
2019-03-06T13:26:25.403Z,43.90
2019-03-06T13:28:30.437Z,43.80
2019-03-06T13:30:35.463Z,43.70
2019-03-06T13:33:05.062Z,43.40
2019-03-06T13:35:10.176Z,43.40
2019-03-06T13:37:15.101Z,43.50
2019-03-06T13:39:20.050Z,43.60
2019-03-06T13:41:25.221Z,43.80
2019-03-06T13:43:30.510Z,43.80
2019-03-06T13:45:36.022Z,43.60
2019-03-06T13:47:41.998Z,43.60
2019-03-06T13:49:46.839Z,43.60
2019-03-06T13:51:52.131Z,43.80
2019-03-06T13:53:57.403Z,43.90
2019-03-06T13:56:02.745Z,43.90
2019-03-06T13:58:07.773Z,43.40
2019-03-06T14:00:16.873Z,43.60
2019-03-06T14:02:21.827Z,43.60
2019-03-06T14:04:27.470Z,43.90
2019-03-06T14:06:32.957Z,43.80
2019-03-06T14:08:38.402Z,43.20
2019-03-06T14:10:44.055Z,43.10
2019-03-06T14:12:49.553Z,42.90
2019-03-06T14:14:54.985Z,43.20
2019-03-06T14:17:00.659Z,43.40
2019-03-06T14:19:06.017Z,43.40
2019-03-06T14:21:11.287Z,43.30
2019-03-06T14:23:16.387Z,43.40
2019-03-06T14:25:23.211Z,43.60
2019-03-06T14:27:28.162Z,43.20
2019-03-06T14:29:34.324Z,43.30
2019-03-06T14:31:39.927Z,43.20
2019-03-06T14:33:45.517Z,43.50
2019-03-06T14:35:50.383Z,43.90
2019-03-06T14:37:55.664Z,43.70
2019-03-06T14:40:09.479Z,43.70
2019-03-06T14:42:08.309Z,43.30
2019-03-06T14:44:13.236Z,43.20
2019-03-06T14:46:18.541Z,43.40
2019-03-06T14:48:24.160Z,43.50
2019-03-06T14:50:29.366Z,44.30
2019-03-06T14:52:35.007Z,44.10
2019-03-06T14:54:40.917Z,44.30
2019-03-06T14:56:46.255Z,44.50
2019-03-06T14:58:51.484Z,44.50
2019-03-06T15:00:56.605Z,44.80
2019-03-06T15:03:01.543Z,45.10
2019-03-06T15:05:07.009Z,44.90
2019-03-06T15:07:12.423Z,45.00
2019-03-06T15:09:28.529Z,45.00
2019-03-06T15:11:33.532Z,45.10
2019-03-06T15:13:38.762Z,45.30
2019-03-06T15:15:43.988Z,45.20
2019-03-06T15:17:49.378Z,45.50
2019-03-06T15:19:55.048Z,45.40
2019-03-06T15:22:02.176Z,46.10
2019-03-06T15:24:07.497Z,46.00
2019-03-06T15:26:13.422Z,46.10
2019-03-06T15:28:18.664Z,46.30
2019-03-06T15:30:24.318Z,46.60
2019-03-06T15:32:29.477Z,46.50
2019-03-06T15:34:34.558Z,46.50
2019-03-06T15:36:39.584Z,46.80
2019-03-06T15:38:44.850Z,47.00
2019-03-06T15:40:50.212Z,46.60
2019-03-06T15:42:55.325Z,46.80
2019-03-06T15:45:00.562Z,47.30
2019-03-06T15:47:05.879Z,47.90
2019-03-06T15:49:10.855Z,48.20
2019-03-06T15:51:15.861Z,48.60
2019-03-06T15:53:24.638Z,48.90
2019-03-06T15:55:28.563Z,49.20
2019-03-06T15:57:33.555Z,49.40
2019-03-06T15:59:38.615Z,49.80
2019-03-06T16:01:44.653Z,50.20
2019-03-06T16:03:50.063Z,50.40
2019-03-06T16:05:55.342Z,51.10
2019-03-06T16:08:01.113Z,51.30
2019-03-06T16:10:07.031Z,51.80
2019-03-06T16:12:12.451Z,52.20
2019-03-06T16:14:17.735Z,52.60
2019-03-06T16:16:22.872Z,52.70
2019-03-06T16:18:28.088Z,52.70
2019-03-06T16:20:33.135Z,53.20
2019-03-06T16:22:38.395Z,53.30
2019-03-06T16:24:43.954Z,53.30
2019-03-06T16:26:49.751Z,53.70
2019-03-06T16:28:55.486Z,54.00
2019-03-06T16:31:00.564Z,54.30
2019-03-06T16:33:06.234Z,54.30
2019-03-06T16:35:11.772Z,54.40
2019-03-06T16:37:17.461Z,54.70
2019-03-06T16:39:22.823Z,55.00
2019-03-06T16:41:28.226Z,55.10
2019-03-06T16:43:34.140Z,56.10
2019-03-06T16:45:39.565Z,55.60
2019-03-06T16:47:44.810Z,55.60
2019-03-06T16:49:49.831Z,55.80
2019-03-06T16:51:55.434Z,56.00
2019-03-06T16:54:00.665Z,56.00
2019-03-06T16:56:05.941Z,56.30
2019-03-06T16:58:11.019Z,56.50
2019-03-06T17:00:26.749Z,56.60
2019-03-06T17:02:35.005Z,56.90
2019-03-06T17:04:40.491Z,57.00
2019-03-06T17:06:46.499Z,57.10
2019-03-06T17:08:51.985Z,57.40
2019-03-06T17:10:58.554Z,57.40
2019-03-06T17:13:04.298Z,57.60
2019-03-06T17:15:09.729Z,57.80
2019-03-06T17:17:14.925Z,57.90
2019-03-06T17:19:20.310Z,57.90
2019-03-06T17:21:26.349Z,58.20
2019-03-06T17:23:31.995Z,58.30
2019-03-06T17:25:37.533Z,58.40
2019-03-06T17:27:42.540Z,58.50
2019-03-06T17:29:47.471Z,58.60
2019-03-06T17:31:54.348Z,58.80
2019-03-06T17:33:59.822Z,58.90
2019-03-06T17:36:04.934Z,59.00
2019-03-06T17:38:11.438Z,59.00
2019-03-06T17:40:17.014Z,59.20
2019-03-06T17:42:22.368Z,59.20
2019-03-06T17:44:27.820Z,59.20
2019-03-06T17:46:32.949Z,59.30
2019-03-06T17:48:38.559Z,59.40
2019-03-06T17:50:44.011Z,59.50
2019-03-06T17:52:49.885Z,59.50
2019-03-06T17:54:55.553Z,59.70
2019-03-06T17:57:01.233Z,59.80
2019-03-06T17:59:06.401Z,59.80
2019-03-06T18:01:15.449Z,60.00
2019-03-06T18:03:36.567Z,60.20
2019-03-06T18:05:42.614Z,60.40
2019-03-06T18:07:47.970Z,60.40
2019-03-06T18:09:53.215Z,60.50
2019-03-06T18:11:58.674Z,60.60
2019-03-06T18:14:04.652Z,60.70
2019-03-06T18:16:10.633Z,60.80
2019-03-06T18:18:16.570Z,60.90
2019-03-06T18:20:21.609Z,61.00
2019-03-06T18:22:26.660Z,61.10
2019-03-06T18:24:32.095Z,61.20
2019-03-06T18:26:37.605Z,61.30
2019-03-06T18:28:43.138Z,61.70
2019-03-06T18:30:48.632Z,61.60
2019-03-06T18:32:53.840Z,62.40
2019-03-06T18:34:59.045Z,61.60
2019-03-06T18:37:04.458Z,61.60
2019-03-06T18:39:20.074Z,61.70
2019-03-06T18:41:25.447Z,62.70
2019-03-06T18:43:30.433Z,61.80
2019-03-06T18:45:35.788Z,62.20
2019-03-06T18:47:40.905Z,62.30
2019-03-06T18:49:46.378Z,62.40
2019-03-06T18:51:51.961Z,62.40
2019-03-06T18:53:56.836Z,62.50
2019-03-06T18:56:02.144Z,62.90
2019-03-06T18:58:07.609Z,62.70
2019-03-06T19:00:17.513Z,62.70
2019-03-06T19:02:22.849Z,62.70
2019-03-06T19:04:28.181Z,62.80
2019-03-06T19:06:33.498Z,62.80
2019-03-06T19:08:38.366Z,62.90
2019-03-06T19:10:43.508Z,63.00
2019-03-06T19:12:48.991Z,63.00
2019-03-06T19:14:54.052Z,63.10
2019-03-06T19:16:59.722Z,63.20
2019-03-06T19:19:05.280Z,63.20
2019-03-06T19:21:10.513Z,63.30
2019-03-06T19:23:15.890Z,63.40
2019-03-06T19:25:22.056Z,63.40
2019-03-06T19:27:27.144Z,63.50
2019-03-06T19:29:33.079Z,63.60
2019-03-06T19:31:38.459Z,63.60
2019-03-06T19:33:43.686Z,63.60
2019-03-06T19:35:49.591Z,63.70
2019-03-06T19:37:55.280Z,63.70
2019-03-06T19:40:00.708Z,63.80
2019-03-06T19:42:06.204Z,63.80
2019-03-06T19:44:11.829Z,63.90
2019-03-06T19:46:16.988Z,63.90
2019-03-06T19:48:22.029Z,64.00
2019-03-06T19:50:27.134Z,64.30
2019-03-06T19:52:34.049Z,64.40
2019-03-06T19:54:40.335Z,64.40
2019-03-06T19:56:45.726Z,64.40
2019-03-06T19:58:51.471Z,64.40
2019-03-06T20:00:57.067Z,64.40
2019-03-06T20:03:02.927Z,64.30
2019-03-06T20:05:08.112Z,64.40
2019-03-06T20:07:13.537Z,64.60
2019-03-06T20:09:25.818Z,64.70
2019-03-06T20:11:31.150Z,64.90
2019-03-06T20:13:36.572Z,64.90
2019-03-06T20:15:42.428Z,65.00
2019-03-06T20:17:47.594Z,65.10
2019-03-06T20:19:53.209Z,65.20
2019-03-06T20:21:58.275Z,65.20
2019-03-06T20:24:03.563Z,65.20
2019-03-06T20:26:13.743Z,65.30
2019-03-06T20:28:15.539Z,65.30
2019-03-06T20:30:21.343Z,65.40
2019-03-06T20:32:26.822Z,65.60
2019-03-06T20:34:32.717Z,65.50
2019-03-06T20:36:38.070Z,65.60
2019-03-06T20:38:43.524Z,65.70
2019-03-06T20:40:48.783Z,65.90
2019-03-06T20:42:54.132Z,66.10
2019-03-06T20:44:59.572Z,66.00
2019-03-06T20:47:05.259Z,66.20
2019-03-06T20:49:10.122Z,66.30
2019-03-06T20:51:16.005Z,66.40
2019-03-06T20:53:22.161Z,66.40
2019-03-06T20:55:27.113Z,66.50
2019-03-06T20:57:32.288Z,66.60
2019-03-06T20:59:37.553Z,66.60
2019-03-06T21:01:43.316Z,66.70
2019-03-06T21:03:50.270Z,66.60
2019-03-06T21:05:56.083Z,66.60
2019-03-06T21:08:01.397Z,66.50
2019-03-06T21:10:06.991Z,66.50
2019-03-06T21:12:11.994Z,66.50
2019-03-06T21:14:16.968Z,66.60
2019-03-06T21:16:22.538Z,66.50
2019-03-06T21:18:27.413Z,66.50
2019-03-06T21:20:32.803Z,66.50
2019-03-06T21:22:37.665Z,66.40
2019-03-06T21:24:43.061Z,66.30
2019-03-06T21:26:48.523Z,66.30
2019-03-06T21:28:53.392Z,66.30
2019-03-06T21:30:58.397Z,66.30
2019-03-06T21:33:03.742Z,66.30
2019-03-06T21:35:09.191Z,66.30
2019-03-06T21:37:14.775Z,66.30
2019-03-06T21:39:24.862Z,66.20
2019-03-06T21:41:30.309Z,66.30
2019-03-06T21:43:36.049Z,66.20
2019-03-06T21:45:41.897Z,66.20
2019-03-06T21:47:47.573Z,66.30
2019-03-06T21:49:52.858Z,66.20
2019-03-06T21:51:57.748Z,66.10
2019-03-06T21:54:02.679Z,66.10
2019-03-06T21:56:07.540Z,66.20
2019-03-06T21:58:12.605Z,66.20
2019-03-06T22:00:20.311Z,66.10
2019-03-06T22:02:25.521Z,66.30
2019-03-06T22:04:33.239Z,66.20
2019-03-06T22:06:38.126Z,66.30
2019-03-06T22:08:43.449Z,66.30
2019-03-06T22:10:48.316Z,66.60
2019-03-06T22:12:53.560Z,66.40
2019-03-06T22:14:58.808Z,66.60
2019-03-06T22:17:03.849Z,66.70
2019-03-06T22:19:09.032Z,66.60
2019-03-06T22:21:13.922Z,66.70
2019-03-06T22:23:19.394Z,66.80
2019-03-06T22:25:24.858Z,66.70
2019-03-06T22:27:29.981Z,66.80
2019-03-06T22:29:35.170Z,66.80
2019-03-06T22:31:40.188Z,66.90
2019-03-06T22:33:45.487Z,66.90
2019-03-06T22:35:50.427Z,66.90
2019-03-06T22:37:57.367Z,66.90
2019-03-06T22:40:02.913Z,66.90
2019-03-06T22:42:08.251Z,67.00
2019-03-06T22:44:13.711Z,67.00
2019-03-06T22:46:18.942Z,67.10
2019-03-06T22:48:24.622Z,67.10
2019-03-06T22:50:29.597Z,67.10
2019-03-06T22:52:34.734Z,67.20
2019-03-06T22:54:39.659Z,67.30
2019-03-06T22:56:44.575Z,67.30
2019-03-06T22:58:49.942Z,67.40
2019-03-06T23:01:25.906Z,67.40
2019-03-06T23:03:31.845Z,67.40
2019-03-06T23:05:36.871Z,67.30
2019-03-06T23:07:42.452Z,67.30
2019-03-06T23:09:47.659Z,67.30
2019-03-06T23:11:53.744Z,67.30
2019-03-06T23:13:58.669Z,67.20
2019-03-06T23:16:04.176Z,67.10
2019-03-06T23:18:09.863Z,67.00
2019-03-06T23:20:15.043Z,66.90
2019-03-06T23:22:20.436Z,66.90
2019-03-06T23:24:25.384Z,66.80
2019-03-06T23:26:30.928Z,66.80
2019-03-06T23:28:36.642Z,66.60
2019-03-06T23:30:41.501Z,66.50
2019-03-06T23:32:47.254Z,66.30
2019-03-06T23:34:52.575Z,66.30
2019-03-06T23:36:58.510Z,66.00
2019-03-06T23:39:03.600Z,66.10
2019-03-06T23:41:08.619Z,65.90
2019-03-06T23:43:13.878Z,66.60
2019-03-06T23:45:19.189Z,65.70
2019-03-06T23:47:24.464Z,65.70
2019-03-06T23:49:29.606Z,65.60
2019-03-06T23:51:43.103Z,65.70
2019-03-06T23:53:52.801Z,65.70
2019-03-06T23:58:03.860Z,65.70
